Historyczne dane pomiarowe

Dodano dane terminowe – wersja testowa.

Dane z okresu 1951-2019

Wersja bazy: 1.34 [2019-03-16, lista zmian], aktualizacja planowana na 2019-04-15

Dane meteo z obszaru Polski uzyskane na podstawie danych udostępnionych przez Instytut Meteorologii i Gospodarki Wodnej – Państwowy Instytut Badawczy.

 

Wybierz Datę:    

       

TemperaturaWilgotnośćWiatrCiśnienieOpadyŚniegCzas trwania zjawisk
 Stacja t tx tn tng RH VA  wxwx mslp ppp RRR   cm mm wxwxwxwxwxwxwx
2006-12-13 3.5 9.9 -1.6 -4.8-- 7.7----- 0.0------------
2006-12-14 6.5 14.5 3.0 -1.6-- 5.7----- 0.0------------
2006-12-15 2.3 12.1 -2.1 -6.4-- 1.7----- 0.0------------
2006-12-16 0.2 4.9 -3.2 -6.9-- 2.0----- 0.5------------
2006-12-17 2.3 5.4 -0.5 -3.7-- 8.0----- 4.0------------
2006-12-18 2.8 6.4 1.0 -0.5-- 8.0----- 0.0------------
2006-12-19 2.5 5.9 1.0 -0.5-- 8.0----- 0.0------------
2006-12-20 1.6 4.9 -0.5 -4.8-- 8.0----- 5.4------------
2006-12-21 4.0 7.4 2.0 1.0-- 8.0----- 0.0------------
2006-12-22 3.9 7.4 1.5 0.0-- 8.0----- 0.0------------
2006-12-23 4.0 7.4 2.7 2.5-- 8.0----- 0.0------------
2006-12-24 3.4 6.4 2.4 2.0-- 8.0----- 0.6------------
2006-12-25 2.6 6.4 0.7 -1.6-- 6.0----- 0.0------------
2006-12-26 -0.4 4.9 -2.6 -6.4-- 6.0----- 0.0------------
2006-12-27 0.6 7.9 -3.7 -5.8-- 2.7----- 0.0------------
2006-12-28 -0.5 4.9 -3.2 -4.8-- 5.0----- 2.9------------
2006-12-29 0.3 3.4 -2.1 -2.1-- 8.0----- 0.0-- 3---------
2006-12-30 -1.2 6.9 -5.3 -9.0-- 3.7----- 0.0-- 2---------
2006-12-31 4.0 12.4 -3.7 -6.4-- 6.0----- 2.1------------
2007-01-01 6.8 10.4 2.5 -1.1-- 7.7----- 0.0------------
2007-01-02 4.8 11.9 2.0 -3.7-- 7.7----- 0.4------------
2007-01-03 3.2 5.9 1.5 -2.6-- 8.0----- 0.4------------
2007-01-04 3.9 8.9 0.5 -2.6-- 8.0----- 0.5------------
2007-01-05 5.8 8.9 4.0 2.0-- 8.0----- 1.6------------
2007-01-06 6.4 9.4 4.0 3.0-- 8.0----- 0.8------------
2007-01-07 6.9 10.1 4.0 0.0-- 7.7----- 3.0------------
2007-01-08 3.9 11.4 -1.0 -4.2-- 7.0----- 0.0------------
2007-01-09 9.0 14.2 5.5 1.0-- 6.7----- 0.0------------
2007-01-10 10.4 16.0 7.9 0.5-- 4.7----- 0.3------------
2007-01-11 9.6 17.2 3.5 1.0-- 6.0----- 3.0------------
2137.5 ms

 

Źródłem pochodzenia danych jest Instytut Meteorologii i Gospodarki Wodnej – Państwowy Instytut Badawczy. Dane Instytutu Meteorologii i Gospodarki Wodnej – Państwowego Instytutu Badawczego zostały przetworzone.

Dane źródłowe można odnaleźć na stronie https://dane.imgw.pl